Time;durP1;ratioP1;P1;durP2;ratioP2;P2;SDS_P1;SDS_P2;PMS_P1;PMS_P2;Temp;Humidity;BMP_temperature;BMP_pressure;BME280_temperature;BME280_humidity;BME280_pressure;Samples;Min_cycle;Max_cycle;Signal;HPM_P1;HPM_P2
2022/01/31 00:00:37;;;;;;;18.58;4.68;;;2.00;99.90;;;;;;4947937;28;20207;-80
2022/01/31 00:03:03;;;;;;;11.40;4.03;;;1.90;99.90;;;;;;4948859;29;20046;-79
2022/01/31 00:05:29;;;;;;;14.75;4.20;;;1.90;99.90;;;;;;4965963;29;20031;-80
2022/01/31 00:07:55;;;;;;;14.13;3.85;;;2.00;99.90;;;;;;4966456;29;20227;-80
2022/01/31 00:10:28;;;;;;;16.08;4.82;;;2.00;99.90;;;;;;4966064;29;20061;-79
2022/01/31 00:13:01;;;;;;;19.08;4.30;;;2.00;99.90;;;;;;4965310;29;20065;-80
2022/01/31 00:15:29;;;;;;;18.52;5.20;;;2.00;99.90;;;;;;4948016;28;20043;-80
2022/01/31 00:17:54;;;;;;;15.50;4.40;;;2.10;99.90;;;;;;4932407;29;20107;-79
2022/01/31 00:20:20;;;;;;;13.68;4.50;;;2.10;99.90;;;;;;4948523;29;20027;-78
2022/01/31 00:22:46;;;;;;;16.25;4.20;;;2.10;99.90;;;;;;4948257;29;20050;-78
2022/01/31 00:25:13;;;;;;;14.40;4.72;;;2.10;99.90;;;;;;4965553;29;20023;-78
2022/01/31 00:27:39;;;;;;;15.55;4.55;;;2.20;99.90;;;;;;4967498;28;20050;-79
2022/01/31 00:30:06;;;;;;;17.48;5.05;;;2.20;99.90;;;;;;4984167;28;20343;-79
2022/01/31 00:32:32;;;;;;;10.95;4.20;;;2.20;99.90;;;;;;4984847;28;20086;-79
2022/01/31 00:34:59;;;;;;;17.02;5.65;;;2.20;99.90;;;;;;4983528;28;20089;-78
2022/01/31 00:37:25;;;;;;;15.13;4.50;;;2.10;99.90;;;;;;4983847;28;20030;-78
2022/01/31 00:39:51;;;;;;;15.68;5.20;;;2.10;99.90;;;;;;4967054;28;20035;-79
2022/01/31 00:42:19;;;;;;;14.65;5.30;;;2.20;99.90;;;;;;4980571;28;20075;-77
2022/01/31 00:44:51;;;;;;;11.77;4.55;;;2.20;99.90;;;;;;4964342;29;20035;-80
2022/01/31 00:47:24;;;;;;;14.93;4.55;;;2.20;99.90;;;;;;4964677;28;20043;-77
2022/01/31 00:49:54;;;;;;;14.18;4.65;;;2.20;99.90;;;;;;4964919;29;20098;-78
2022/01/31 00:52:20;;;;;;;14.25;4.78;;;2.20;99.90;;;;;;4964954;28;20043;-78
2022/01/31 00:54:46;;;;;;;13.70;4.57;;;2.30;99.90;;;;;;4979501;28;20027;-79
2022/01/31 00:57:12;;;;;;;20.63;6.90;;;2.30;99.90;;;;;;4946876;29;20057;-77
2022/01/31 00:59:38;;;;;;;14.35;5.20;;;2.30;99.90;;;;;;4962800;29;20241;-80
2022/01/31 01:02:04;;;;;;;15.95;4.95;;;2.40;99.90;;;;;;4943337;29;20051;-77
2022/01/31 01:04:30;;;;;;;18.23;4.47;;;2.40;99.90;;;;;;4927857;29;20278;-78
2022/01/31 01:06:57;;;;;;;12.73;4.40;;;2.50;99.90;;;;;;4943064;29;20397;-79
2022/01/31 01:09:22;;;;;;;12.02;4.25;;;2.50;99.90;;;;;;4927888;29;20043;-77
2022/01/31 01:11:48;;;;;;;14.18;4.68;;;2.50;99.90;;;;;;4911527;29;20233;-78
2022/01/31 01:14:14;;;;;;;14.85;4.85;;;2.60;99.90;;;;;;4943826;29;20031;-78
2022/01/31 01:16:40;;;;;;;15.27;5.22;;;2.70;99.90;;;;;;4943029;29;20055;-79
2022/01/31 01:19:06;;;;;;;17.02;5.75;;;2.60;99.90;;;;;;4927594;29;20027;-79
2022/01/31 01:21:32;;;;;;;15.55;5.15;;;2.70;99.90;;;;;;4927297;29;20035;-77
2022/01/31 01:23:58;;;;;;;10.13;4.82;;;2.80;99.90;;;;;;4942936;29;20048;-76
2022/01/31 01:26:24;;;;;;;19.42;5.10;;;2.80;99.90;;;;;;4926862;29;20039;-75
2022/01/31 01:28:52;;;;;;;16.08;4.40;;;2.80;99.90;;;;;;4955011;29;20047;-76
2022/01/31 01:31:18;;;;;;;10.38;4.10;;;2.80;99.90;;;;;;4963500;29;20031;-77
2022/01/31 01:33:45;;;;;;;13.85;3.65;;;2.90;99.90;;;;;;4962894;29;20050;-78
2022/01/31 01:36:11;;;;;;;12.95;3.83;;;2.90;99.90;;;;;;4964336;28;20326;-78
2022/01/31 01:38:38;;;;;;;12.07;3.50;;;3.00;99.90;;;;;;4964308;28;20027;-79
2022/01/31 01:41:05;;;;;;;11.02;3.30;;;3.00;99.90;;;;;;4970566;28;20306;-78
2022/01/31 01:43:31;;;;;;;10.93;3.88;;;3.10;99.90;;;;;;4966378;28;20042;-79
2022/01/31 01:45:58;;;;;;;13.23;3.95;;;3.10;99.90;;;;;;4983152;28;20030;-77
2022/01/31 01:48:28;;;;;;;10.50;3.95;;;3.10;99.90;;;;;;4982363;28;20068;-78
2022/01/31 01:50:56;;;;;;;16.10;5.00;;;3.10;99.90;;;;;;4982275;28;20031;-77
2022/01/31 01:53:22;;;;;;;12.07;3.58;;;3.10;99.90;;;;;;4982392;28;20019;-78
2022/01/31 01:55:51;;;;;;;15.88;3.90;;;3.10;99.90;;;;;;4982005;28;20027;-77
2022/01/31 01:58:17;;;;;;;13.65;3.53;;;3.10;99.90;;;;;;4982585;28;20217;-78
2022/01/31 02:00:51;;;;;;;13.45;4.00;;;3.10;99.90;;;;;;4966145;28;20030;-78
2022/01/31 02:03:27;;;;;;;17.25;3.85;;;3.10;99.90;;;;;;4982842;28;20035;-78
2022/01/31 02:05:55;;;;;;;13.23;4.13;;;3.10;99.90;;;;;;4966151;28;20066;-77
2022/01/31 02:08:21;;;;;;;12.75;4.03;;;3.10;99.90;;;;;;4982383;28;20042;-78
2022/01/31 02:10:47;;;;;;;10.18;3.40;;;3.20;99.90;;;;;;4982263;28;20291;-78
2022/01/31 02:13:25;;;;;;;11.95;3.00;;;3.20;99.90;;;;;;4983608;28;20018;-77
2022/01/31 02:16:17;;;;;;;8.65;3.47;;;3.20;99.90;;;;;;4973296;28;20038;-77
2022/01/31 02:18:54;;;;;;;12.48;3.00;;;3.30;99.90;;;;;;4981679;28;20041;-77
2022/01/31 02:21:38;;;;;;;9.50;2.95;;;3.30;99.90;;;;;;4982458;28;20067;-79
2022/01/31 02:24:22;;;;;;;11.07;2.97;;;3.30;99.90;;;;;;4982058;28;20336;-78
2022/01/31 02:27:03;;;;;;;11.98;3.55;;;3.40;99.90;;;;;;4967580;28;20050;-78
2022/01/31 02:29:31;;;;;;;10.57;3.47;;;3.40;99.90;;;;;;4966135;28;20043;-77
2022/01/31 02:31:57;;;;;;;13.25;3.90;;;3.40;99.90;;;;;;4982814;28;20348;-78
2022/01/31 02:34:23;;;;;;;11.07;3.65;;;3.30;99.90;;;;;;4984692;28;20030;-76
2022/01/31 02:36:49;;;;;;;12.80;4.03;;;3.30;99.90;;;;;;4968135;28;20046;-79
2022/01/31 02:39:16;;;;;;;11.80;3.70;;;3.20;99.90;;;;;;4985643;28;20310;-77
2022/01/31 02:42:00;;;;;;;13.52;4.18;;;3.30;99.90;;;;;;4993596;28;20053;-76
2022/01/31 02:44:27;;;;;;;11.45;3.65;;;3.30;99.90;;;;;;4992906;28;20027;-76
2022/01/31 02:47:10;;;;;;;13.05;3.75;;;3.30;99.90;;;;;;4988324;28;20344;-75
2022/01/31 02:49:45;;;;;;;14.55;4.13;;;3.30;99.90;;;;;;4985960;28;20045;-78
2022/01/31 02:52:13;;;;;;;15.70;3.97;;;3.30;99.90;;;;;;4985727;28;20336;-77
2022/01/31 02:54:39;;;;;;;8.07;3.15;;;3.30;99.90;;;;;;4985573;28;20033;-78
2022/01/31 02:57:06;;;;;;;10.43;3.30;;;3.40;99.90;;;;;;4986319;28;20125;-76
2022/01/31 02:59:31;;;;;;;12.27;4.03;;;3.40;99.90;;;;;;4985300;28;20039;-78
2022/01/31 03:01:58;;;;;;;10.40;3.20;;;3.30;99.90;;;;;;4985203;28;20031;-77
2022/01/31 03:04:24;;;;;;;9.63;3.50;;;3.30;99.90;;;;;;4986520;28;20041;-77
2022/01/31 03:06:50;;;;;;;13.93;3.38;;;3.20;99.90;;;;;;4968678;28;20042;-80
2022/01/31 03:09:19;;;;;;;13.70;3.40;;;3.30;99.90;;;;;;4985182;28;20035;-78
2022/01/31 03:11:48;;;;;;;10.57;3.88;;;3.20;99.90;;;;;;4984809;28;20026;-77
2022/01/31 03:14:18;;;;;;;14.05;4.07;;;3.20;99.90;;;;;;4984805;28;20138;-76
2022/01/31 03:16:49;;;;;;;12.60;3.80;;;3.20;99.90;;;;;;4984516;28;20263;-78
2022/01/31 03:19:28;;;;;;;15.50;3.72;;;3.30;99.90;;;;;;4985124;28;20031;-76
2022/01/31 03:21:59;;;;;;;9.00;3.38;;;3.20;99.90;;;;;;4984555;28;20178;-76
2022/01/31 03:24:25;;;;;;;13.98;3.92;;;3.20;99.90;;;;;;4968664;28;20027;-77
2022/01/31 03:26:51;;;;;;;13.25;3.42;;;3.20;99.90;;;;;;4984172;28;20114;-77
2022/01/31 03:29:17;;;;;;;14.60;3.83;;;3.20;99.90;;;;;;4985030;28;20306;-77
2022/01/31 03:31:43;;;;;;;11.57;3.85;;;3.20;99.90;;;;;;4985091;28;20049;-77
2022/01/31 03:34:09;;;;;;;12.57;3.58;;;3.10;99.90;;;;;;4984068;28;20361;-78
2022/01/31 03:36:35;;;;;;;13.88;3.85;;;3.10;99.90;;;;;;4984531;28;20041;-77
2022/01/31 03:39:00;;;;;;;12.15;3.40;;;3.10;99.90;;;;;;4984215;28;20050;-76
2022/01/31 03:41:27;;;;;;;11.50;3.17;;;3.10;99.90;;;;;;4974519;28;20038;-78
2022/01/31 03:43:53;;;;;;;14.82;3.90;;;3.10;99.90;;;;;;4966264;28;20023;-76
2022/01/31 03:46:19;;;;;;;11.63;3.50;;;3.10;99.90;;;;;;4949433;28;20058;-75
2022/01/31 03:48:46;;;;;;;12.57;3.45;;;3.20;99.90;;;;;;4964621;28;20077;-79
2022/01/31 03:51:44;;;;;;;12.23;4.40;;;3.10;99.90;;;;;;4965792;28;20039;-75
2022/01/31 03:54:14;;;;;;;12.52;3.95;;;3.20;99.90;;;;;;4981397;28;20039;-77
2022/01/31 03:56:40;;;;;;;16.63;4.22;;;3.20;99.90;;;;;;4981200;28;20031;-78
2022/01/31 03:59:26;;;;;;;10.73;3.38;;;3.20;99.90;;;;;;4965771;28;20077;-77
2022/01/31 04:01:53;;;;;;;9.87;3.30;;;3.30;99.90;;;;;;4980845;28;20027;-78
2022/01/31 04:04:19;;;;;;;10.68;3.30;;;3.30;99.90;;;;;;4965827;28;20297;-80
2022/01/31 04:06:45;;;;;;;10.50;3.22;;;3.40;99.90;;;;;;4965979;28;20035;-77
2022/01/31 04:09:10;;;;;;;10.20;3.67;;;3.40;99.90;;;;;;4965314;28;20081;-77
2022/01/31 04:11:36;;;;;;;12.52;3.35;;;3.40;99.90;;;;;;4965017;29;20067;-77
2022/01/31 04:14:02;;;;;;;13.15;3.30;;;3.40;99.90;;;;;;4965713;28;20043;-78
2022/01/31 04:16:28;;;;;;;10.63;3.40;;;3.40;99.90;;;;;;4966047;28;20347;-77
2022/01/31 04:18:53;;;;;;;9.10;3.30;;;3.40;99.90;;;;;;4965611;28;20066;-76
2022/01/31 04:21:21;;;;;;;15.98;4.32;;;3.40;99.90;;;;;;4965207;28;20218;-78
2022/01/31 04:23:51;;;;;;;12.27;4.35;;;3.50;99.90;;;;;;4964386;29;20031;-80
2022/01/31 04:26:18;;;;;;;12.90;3.88;;;3.40;99.90;;;;;;4963834;29;20019;-76
2022/01/31 04:29:01;;;;;;;9.77;3.83;;;3.40;99.90;;;;;;4946116;29;20330;-76
2022/01/31 04:31:38;;;;;;;10.43;3.50;;;3.40;99.90;;;;;;4946191;29;20044;-78
2022/01/31 04:34:04;;;;;;;9.43;3.65;;;3.40;99.90;;;;;;4945646;29;20119;-77
2022/01/31 04:36:30;;;;;;;12.05;3.70;;;3.50;99.90;;;;;;4946082;29;20036;-78
2022/01/31 04:38:56;;;;;;;16.40;5.15;;;3.50;99.90;;;;;;4945330;29;20035;-76
2022/01/31 04:41:22;;;;;;;10.00;3.45;;;3.50;99.90;;;;;;4955672;29;20033;-76
2022/01/31 04:43:50;;;;;;;16.13;4.13;;;3.50;99.90;;;;;;4965254;29;20042;-77
2022/01/31 04:46:15;;;;;;;10.98;3.53;;;3.60;99.90;;;;;;4965106;29;20155;-76
2022/01/31 04:48:43;;;;;;;8.98;2.90;;;3.60;99.90;;;;;;4964857;29;20042;-77
2022/01/31 04:51:10;;;;;;;9.25;3.22;;;3.60;99.90;;;;;;4964263;29;20042;-77
2022/01/31 04:53:37;;;;;;;12.73;3.50;;;3.60;99.90;;;;;;4964719;28;20031;-77
2022/01/31 04:56:03;;;;;;;11.25;3.53;;;3.60;99.90;;;;;;4964711;29;20310;-77
2022/01/31 04:58:31;;;;;;;12.65;3.58;;;3.60;99.90;;;;;;4964999;29;20065;-77
2022/01/31 05:00:56;;;;;;;10.10;3.13;;;3.70;99.90;;;;;;4963329;28;20042;-78
2022/01/31 05:03:22;;;;;;;10.38;3.20;;;3.80;99.90;;;;;;4948680;29;20035;-77
2022/01/31 05:05:48;;;;;;;14.75;4.00;;;3.80;99.90;;;;;;4964463;29;20249;-76
2022/01/31 05:08:15;;;;;;;7.90;3.00;;;3.80;99.90;;;;;;4964569;29;20062;-79
2022/01/31 05:10:46;;;;;;;9.27;2.67;;;3.90;99.90;;;;;;4964784;29;20050;-78
2022/01/31 05:13:13;;;;;;;10.63;3.17;;;3.90;99.90;;;;;;4964298;29;20034;-77
2022/01/31 05:15:40;;;;;;;11.00;3.03;;;4.00;99.90;;;;;;4964713;29;20019;-77
2022/01/31 05:18:05;;;;;;;12.23;3.58;;;4.00;99.90;;;;;;4965627;29;20027;-78
2022/01/31 05:20:31;;;;;;;10.27;2.92;;;4.00;99.90;;;;;;4965156;29;20042;-78
2022/01/31 05:22:57;;;;;;;15.45;3.65;;;4.00;99.90;;;;;;4964214;29;20042;-79
2022/01/31 05:25:23;;;;;;;13.68;4.00;;;4.00;99.90;;;;;;4964408;29;20039;-77
2022/01/31 05:27:48;;;;;;;12.02;3.78;;;4.00;99.90;;;;;;4963989;28;20082;-78
2022/01/31 05:30:16;;;;;;;11.95;3.70;;;4.00;99.90;;;;;;4963547;29;20031;-78
2022/01/31 05:32:42;;;;;;;8.45;3.22;;;4.00;99.90;;;;;;4964479;29;20027;-78
2022/01/31 05:35:08;;;;;;;10.55;3.00;;;4.00;99.90;;;;;;4963621;29;20055;-78
2022/01/31 05:37:35;;;;;;;11.98;3.20;;;4.00;99.90;;;;;;4946951;29;20027;-77
2022/01/31 05:40:02;;;;;;;8.77;2.85;;;4.10;99.90;;;;;;4963977;29;20297;-76
2022/01/31 05:42:28;;;;;;;10.38;2.88;;;4.10;99.90;;;;;;4946124;29;20098;-76
2022/01/31 05:44:53;;;;;;;14.02;3.70;;;4.20;99.90;;;;;;4944714;29;20050;-79
2022/01/31 05:47:19;;;;;;;7.93;3.20;;;4.10;99.90;;;;;;4945159;29;20039;-78
2022/01/31 05:49:45;;;;;;;8.63;3.00;;;4.20;99.90;;;;;;4944748;29;20042;-75
2022/01/31 05:52:11;;;;;;;10.75;3.28;;;4.20;99.90;;;;;;4945181;29;20199;-75
2022/01/31 05:54:38;;;;;;;9.18;3.25;;;4.20;99.90;;;;;;4944936;29;20126;-76
2022/01/31 05:57:05;;;;;;;9.55;3.35;;;4.20;99.90;;;;;;4944477;29;20188;-75
2022/01/31 05:59:32;;;;;;;7.28;3.03;;;4.30;99.90;;;;;;4948238;29;20048;-74
2022/01/31 06:01:58;;;;;;;13.65;3.30;;;4.30;99.90;;;;;;4956430;29;20027;-76
2022/01/31 06:04:28;;;;;;;7.45;2.67;;;4.40;99.90;;;;;;4951688;29;20019;-76
2022/01/31 06:06:54;;;;;;;10.82;2.72;;;4.50;99.90;;;;;;4963314;29;20036;-79
2022/01/31 06:09:22;;;;;;;12.73;3.28;;;4.50;99.90;;;;;;4964178;29;20031;-77
2022/01/31 06:11:49;;;;;;;10.85;2.88;;;4.60;99.90;;;;;;4943609;29;20067;-77
2022/01/31 06:14:18;;;;;;;9.00;2.80;;;4.60;99.90;;;;;;4948093;29;20058;-77
2022/01/31 06:16:44;;;;;;;8.50;2.38;;;4.70;99.90;;;;;;4931230;29;20036;-80
2022/01/31 06:19:10;;;;;;;10.98;2.83;;;4.80;99.90;;;;;;4958191;29;20054;-76
2022/01/31 06:21:35;;;;;;;8.05;2.30;;;4.80;99.90;;;;;;4967370;29;20099;-77
2022/01/31 06:24:01;;;;;;;8.35;2.38;;;4.70;99.90;;;;;;4967294;29;20317;-79
2022/01/31 06:26:29;;;;;;;10.20;2.60;;;4.70;99.90;;;;;;4950170;28;20039;-77
2022/01/31 06:29:27;;;;;;;10.52;3.38;;;4.70;99.90;;;;;;4943019;29;20051;-77
2022/01/31 06:32:07;;;;;;;11.02;3.20;;;4.60;99.90;;;;;;4934949;28;20338;-77
2022/01/31 06:34:36;;;;;;;13.55;3.00;;;4.50;99.90;;;;;;4950634;29;20039;-76
2022/01/31 06:37:04;;;;;;;11.00;2.80;;;4.50;99.90;;;;;;4966512;29;20411;-78
2022/01/31 06:39:30;;;;;;;10.75;2.80;;;4.40;99.90;;;;;;4950297;29;20031;-78
2022/01/31 06:41:56;;;;;;;11.55;2.95;;;4.20;99.90;;;;;;4941105;29;20047;-76
2022/01/31 06:44:22;;;;;;;12.27;3.58;;;4.10;99.90;;;;;;4948132;29;20032;-78
2022/01/31 06:46:48;;;;;;;10.73;3.03;;;4.00;99.90;;;;;;4946921;29;20334;-77
2022/01/31 06:49:14;;;;;;;12.32;3.17;;;3.90;99.90;;;;;;4947462;29;20169;-77
2022/01/31 06:51:40;;;;;;;15.57;4.35;;;3.90;99.90;;;;;;4930670;29;20307;-76
2022/01/31 06:54:06;;;;;;;10.55;3.53;;;3.80;99.90;;;;;;4946046;29;20019;-75
2022/01/31 06:56:35;;;;;;;14.23;3.47;;;3.80;99.90;;;;;;4946429;29;20107;-77
2022/01/31 06:59:02;;;;;;;15.15;4.18;;;3.80;99.90;;;;;;4946731;29;20250;-75
2022/01/31 07:01:28;;;;;;;10.68;3.35;;;3.90;99.90;;;;;;4965926;28;20050;-78
2022/01/31 07:03:54;;;;;;;10.10;3.20;;;3.90;99.90;;;;;;4966283;29;20031;-79
2022/01/31 07:06:21;;;;;;;10.43;3.08;;;3.80;99.90;;;;;;4929329;29;20023;-77
2022/01/31 07:08:48;;;;;;;12.73;3.40;;;3.80;99.90;;;;;;4930144;29;20034;-77
2022/01/31 07:11:19;;;;;;;9.60;3.75;;;3.80;99.90;;;;;;4943711;29;20071;-78
2022/01/31 07:13:48;;;;;;;10.63;3.15;;;3.70;99.90;;;;;;4947146;29;20039;-77
2022/01/31 07:16:14;;;;;;;11.65;3.45;;;3.80;99.90;;;;;;4968307;28;20035;-76
2022/01/31 07:18:40;;;;;;;11.85;3.65;;;3.80;99.90;;;;;;4966341;29;20035;-77
2022/01/31 07:21:11;;;;;;;10.88;3.60;;;3.80;99.90;;;;;;4948989;29;20233;-78
2022/01/31 07:24:03;;;;;;;9.68;3.72;;;3.80;99.90;;;;;;4965963;28;20377;-77
2022/01/31 07:26:29;;;;;;;9.13;3.55;;;3.70;99.90;;;;;;4966195;28;20027;-78
2022/01/31 07:28:54;;;;;;;14.43;3.47;;;3.70;99.90;;;;;;4948907;29;20110;-77
2022/01/31 07:31:20;;;;;;;7.65;3.60;;;3.80;99.90;;;;;;4947789;29;20051;-76
2022/01/31 07:33:46;;;;;;;9.15;3.90;;;3.80;99.90;;;;;;4966196;29;20034;-76
2022/01/31 07:36:12;;;;;;;9.10;3.47;;;3.80;99.90;;;;;;4966573;29;20035;-75
2022/01/31 07:38:37;;;;;;;13.02;3.28;;;3.90;99.90;;;;;;4966120;29;20031;-77
2022/01/31 07:41:04;;;;;;;11.02;3.22;;;3.90;99.90;;;;;;4948439;29;20025;-77
2022/01/31 07:43:31;;;;;;;8.18;2.97;;;3.90;99.90;;;;;;4948914;29;20035;-79
2022/01/31 07:45:57;;;;;;;8.77;2.83;;;4.00;99.90;;;;;;4932432;29;20067;-77
2022/01/31 07:48:25;;;;;;;9.85;3.58;;;4.00;99.90;;;;;;4965109;28;20210;-75
2022/01/31 07:50:51;;;;;;;8.05;3.17;;;4.00;99.90;;;;;;4948642;29;20171;-77
2022/01/31 07:53:17;;;;;;;7.00;2.58;;;4.00;99.90;;;;;;4948236;29;20047;-77
2022/01/31 07:55:43;;;;;;;5.43;2.22;;;4.10;99.90;;;;;;4965487;28;20415;-78
2022/01/31 07:58:09;;;;;;;6.63;2.70;;;4.10;99.90;;;;;;4964681;29;20027;-78
2022/01/31 08:00:35;;;;;;;5.07;1.85;;;4.10;99.90;;;;;;4964953;28;20233;-78
2022/01/31 08:03:03;;;;;;;3.85;2.25;;;4.20;99.90;;;;;;4964917;29;20063;-77
2022/01/31 08:05:29;;;;;;;5.55;1.40;;;4.20;99.90;;;;;;4964916;29;20065;-78
2022/01/31 08:07:55;;;;;;;4.85;1.80;;;4.20;99.90;;;;;;4964937;29;20374;-77
2022/01/31 08:10:22;;;;;;;4.68;1.70;;;4.20;99.90;;;;;;4947613;29;20043;-77
2022/01/31 08:12:47;;;;;;;5.65;1.67;;;4.20;99.90;;;;;;4965384;29;20039;-77
2022/01/31 08:15:24;;;;;;;5.50;1.70;;;4.20;99.90;;;;;;4964144;28;20295;-81
2022/01/31 08:17:50;;;;;;;6.35;1.50;;;4.30;99.90;;;;;;4964973;29;20051;-79
2022/01/31 08:20:16;;;;;;;4.28;1.63;;;4.40;99.90;;;;;;4964544;29;20038;-77
2022/01/31 08:22:42;;;;;;;4.22;1.35;;;4.40;99.90;;;;;;4948116;29;20090;-79
2022/01/31 08:25:13;;;;;;;3.53;1.20;;;4.40;99.90;;;;;;4964715;29;20026;-79
2022/01/31 08:27:41;;;;;;;5.40;1.45;;;4.40;99.90;;;;;;4967626;28;20265;-79
2022/01/31 08:30:12;;;;;;;3.05;1.00;;;4.40;99.90;;;;;;4981973;28;20225;-77
2022/01/31 08:32:47;;;;;;;4.22;1.00;;;4.50;99.90;;;;;;4983257;28;20035;-76
2022/01/31 08:38:09;;;;;;;2.22;0.80;;;4.60;99.90;;;;;;4982799;28;20074;-77
2022/01/31 08:40:36;;;;;;;2.15;0.60;;;4.70;99.90;;;;;;4980649;28;20035;-77
2022/01/31 08:43:02;;;;;;;2.60;0.73;;;4.80;99.90;;;;;;4978987;28;20038;-76
2022/01/31 08:45:28;;;;;;;2.80;0.65;;;4.80;99.90;;;;;;4963092;28;20039;-78
2022/01/31 08:47:53;;;;;;;1.92;0.60;;;4.90;99.90;;;;;;4964628;29;20078;-77
2022/01/31 08:50:19;;;;;;;2.35;0.73;;;5.00;99.90;;;;;;4964258;28;20035;-76
2022/01/31 08:52:45;;;;;;;1.73;0.60;;;5.00;99.90;;;;;;4963121;28;20214;-77
2022/01/31 08:55:12;;;;;;;1.80;0.60;;;5.00;99.90;;;;;;4964019;28;20070;-76
2022/01/31 08:57:38;;;;;;;2.55;0.77;;;5.10;99.90;;;;;;4964625;28;20046;-79
2022/01/31 09:00:07;;;;;;;2.40;0.77;;;5.20;99.90;;;;;;4981146;28;20305;-77
2022/01/31 09:02:51;;;;;;;1.95;0.70;;;5.30;99.90;;;;;;4982623;28;20205;-77
2022/01/31 09:05:17;;;;;;;1.80;0.70;;;5.40;99.90;;;;;;4982977;28;20093;-77
2022/01/31 09:07:43;;;;;;;1.88;0.82;;;5.30;99.90;;;;;;4982189;28;20030;-78
2022/01/31 09:10:08;;;;;;;3.10;0.90;;;5.50;99.90;;;;;;4983218;28;20227;-78
2022/01/31 09:12:36;;;;;;;2.65;0.75;;;5.50;99.90;;;;;;4983259;28;20029;-77
2022/01/31 09:15:06;;;;;;;2.65;0.90;;;5.50;99.90;;;;;;4982769;28;20023;-76
2022/01/31 09:17:34;;;;;;;3.22;0.80;;;5.60;99.90;;;;;;4983107;28;20034;-76
2022/01/31 09:19:59;;;;;;;2.88;0.90;;;5.70;99.90;;;;;;4982228;28;20030;-76
2022/01/31 09:22:25;;;;;;;2.90;0.70;;;5.80;99.90;;;;;;4982939;28;20038;-76
2022/01/31 09:24:51;;;;;;;3.15;0.60;;;6.10;99.90;;;;;;4981654;28;20177;-76
2022/01/31 09:27:17;;;;;;;3.67;0.80;;;6.10;99.90;;;;;;4982797;28;20329;-75
2022/01/31 09:29:43;;;;;;;2.50;0.57;;;6.10;99.90;;;;;;4988584;28;20046;-77
2022/01/31 09:32:11;;;;;;;1.92;0.55;;;6.50;99.90;;;;;;4987105;28;20050;-75
2022/01/31 09:34:37;;;;;;;2.88;0.68;;;6.60;99.90;;;;;;4967342;28;20348;-77
2022/01/31 09:37:21;;;;;;;2.75;0.90;;;6.60;99.90;;;;;;4981978;28;20261;-77
2022/01/31 09:39:50;;;;;;;2.28;0.82;;;6.70;99.90;;;;;;4966677;28;20058;-76
2022/01/31 09:42:27;;;;;;;2.33;0.70;;;6.50;99.90;;;;;;4965739;28;20042;-79
2022/01/31 09:50:15;;;;;;;3.30;0.90;;;6.90;99.90;;;;;;4963462;29;20226;-76
2022/01/31 09:52:48;;;;;;;3.35;0.82;;;6.90;99.90;;;;;;4963276;28;20023;-77
2022/01/31 09:55:15;;;;;;;5.28;1.45;;;6.90;99.90;;;;;;4978596;28;20034;-76
2022/01/31 09:57:41;;;;;;;3.15;0.80;;;7.00;99.90;;;;;;4964044;28;20028;-78
2022/01/31 10:00:07;;;;;;;4.63;1.15;;;7.00;99.90;;;;;;4979964;28;20106;-77
2022/01/31 10:02:39;;;;;;;2.58;1.00;;;6.80;99.90;;;;;;4982961;28;20035;-76
2022/01/31 10:05:05;;;;;;;4.72;0.73;;;6.80;99.90;;;;;;4982193;28;20344;-78
2022/01/31 10:07:45;;;;;;;3.45;0.80;;;6.80;99.90;;;;;;4962408;29;20031;-76
2022/01/31 10:10:23;;;;;;;3.72;1.00;;;6.50;99.90;;;;;;4962621;28;20067;-78
2022/01/31 10:18:08;;;;;;;2.30;0.77;;;6.40;99.90;;;;;;4962938;29;20273;-79
2022/01/31 10:20:35;;;;;;;4.57;1.15;;;6.40;99.90;;;;;;4963761;28;20039;-75
2022/01/31 10:23:13;;;;;;;3.15;1.10;;;6.50;99.90;;;;;;4963642;28;20111;-78
2022/01/31 10:25:39;;;;;;;4.00;1.27;;;6.50;99.90;;;;;;4962367;29;20059;-76
2022/01/31 10:28:19;;;;;;;5.50;1.08;;;6.60;99.90;;;;;;4948882;29;20060;-76
2022/01/31 10:30:47;;;;;;;3.53;0.82;;;6.70;99.90;;;;;;4943794;29;20229;-76
2022/01/31 10:33:13;;;;;;;4.25;0.88;;;6.90;99.90;;;;;;4944293;29;20043;-75
2022/01/31 10:35:40;;;;;;;4.43;1.13;;;6.80;99.90;;;;;;4944090;29;20023;-76
2022/01/31 10:38:11;;;;;;;4.60;1.17;;;6.90;99.90;;;;;;4912038;29;20330;-77
2022/01/31 10:44:43;;;;;;;3.05;0.68;;;6.90;99.90;;;;;;4944268;29;20055;-77
2022/01/31 10:54:35;;;;;;;4.57;0.95;;;7.00;99.90;;;;;;4943740;29;20059;-75
2022/01/31 10:57:04;;;;;;;2.28;0.60;;;7.00;99.90;;;;;;4944235;29;20036;-76
2022/01/31 10:59:36;;;;;;;5.85;0.93;;;7.10;99.90;;;;;;4925065;29;20345;-77
2022/01/31 11:02:15;;;;;;;2.78;0.90;;;7.10;99.90;;;;;;4948969;28;20046;-77
2022/01/31 11:04:42;;;;;;;5.00;0.90;;;7.10;99.90;;;;;;4966266;29;20378;-77
2022/01/31 11:07:15;;;;;;;3.65;0.70;;;6.90;99.90;;;;;;4948995;29;20203;-75
2022/01/31 11:09:43;;;;;;;3.50;0.70;;;6.80;99.90;;;;;;4966711;29;20031;-76
2022/01/31 11:12:10;;;;;;;4.63;1.00;;;6.70;99.90;;;;;;4965964;29;20054;-77
2022/01/31 11:14:39;;;;;;;4.40;0.90;;;6.80;99.90;;;;;;4948444;29;20035;-78
2022/01/31 11:17:24;;;;;;;3.38;1.02;;;6.90;99.90;;;;;;4966380;28;20082;-76
2022/01/31 11:19:57;;;;;;;4.28;0.90;;;7.20;99.90;;;;;;4964667;29;20027;-76
2022/01/31 11:22:37;;;;;;;5.80;1.27;;;7.30;99.90;;;;;;4963508;29;20050;-76
2022/01/31 11:25:05;;;;;;;3.78;0.95;;;7.60;99.90;;;;;;4966294;29;20102;-78
2022/01/31 11:27:32;;;;;;;5.05;1.25;;;7.70;99.90;;;;;;4976058;28;20058;-80
2022/01/31 11:30:00;;;;;;;3.10;0.85;;;7.40;99.90;;;;;;4985957;28;20077;-76
2022/01/31 11:32:27;;;;;;;3.03;0.73;;;7.20;99.90;;;;;;4967936;28;20043;-77
2022/01/31 11:34:54;;;;;;;4.90;1.02;;;7.30;99.90;;;;;;4985432;28;20313;-77
2022/01/31 11:37:21;;;;;;;4.13;0.90;;;7.00;99.90;;;;;;4985009;28;20030;-77
2022/01/31 11:40:03;;;;;;;5.30;1.00;;;6.90;99.90;;;;;;4968480;28;20033;-77
2022/01/31 11:42:31;;;;;;;6.22;1.17;;;6.60;99.90;;;;;;4946399;29;20118;-77
2022/01/31 11:44:59;;;;;;;4.57;1.00;;;6.60;99.90;;;;;;4947270;29;20028;-78
2022/01/31 11:47:28;;;;;;;4.22;0.77;;;6.50;99.90;;;;;;4946134;29;20119;-77
2022/01/31 11:49:59;;;;;;;3.75;0.85;;;6.40;99.90;;;;;;4946718;29;20040;-76
2022/01/31 11:52:30;;;;;;;3.75;0.77;;;6.40;99.90;;;;;;4946348;29;20298;-77
2022/01/31 11:54:59;;;;;;;2.22;0.75;;;6.40;99.90;;;;;;4946490;29;20091;-77
2022/01/31 11:57:28;;;;;;;2.65;0.90;;;6.30;99.90;;;;;;4946393;29;20036;-75
2022/01/31 11:59:57;;;;;;;1.73;0.70;;;6.30;99.90;;;;;;4946366;29;20306;-76
2022/01/31 12:02:25;;;;;;;3.63;0.70;;;6.30;99.90;;;;;;4931400;29;20063;-77
2022/01/31 12:04:52;;;;;;;;;;;6.20;99.90;;;;;;4966044;29;20031;-78
2022/01/31 12:07:31;;;;;;;3.33;0.77;;;6.20;99.90;;;;;;4964928;29;19949;-79
2022/01/31 12:10:00;;;;;;;3.80;0.73;;;6.00;99.90;;;;;;4965128;28;20043;-78
2022/01/31 12:12:47;;;;;;;2.65;1.10;;;5.90;99.90;;;;;;4964914;29;20058;-76
2022/01/31 12:15:40;;;;;;;5.15;0.90;;;5.80;99.90;;;;;;4947511;28;20289;-78
2022/01/31 12:18:54;;;;;;;5.35;1.40;;;5.80;99.90;;;;;;4965102;29;20090;-76
2022/01/31 12:24:27;;;;;;;3.05;0.65;;;5.80;99.90;;;;;;4965027;29;20246;-76
2022/01/31 12:26:55;;;;;;;5.32;1.00;;;5.90;99.90;;;;;;4955299;28;20055;-77
2022/01/31 12:29:28;;;;;;;5.15;1.10;;;6.00;99.90;;;;;;4984220;28;20039;-77
2022/01/31 12:31:55;;;;;;;5.78;1.02;;;6.10;99.90;;;;;;4984273;28;20356;-80
2022/01/31 12:34:21;;;;;;;4.72;0.93;;;6.20;99.90;;;;;;4983132;28;20099;-78
2022/01/31 12:36:51;;;;;;;5.40;1.00;;;6.10;99.90;;;;;;4984440;28;20027;-77
2022/01/31 12:39:55;;;;;;;5.60;1.00;;;6.00;99.90;;;;;;4982752;28;20081;-76
2022/01/31 12:45:39;;;;;;;3.28;1.10;;;5.80;99.90;;;;;;4963973;28;20039;-75
2022/01/31 12:48:24;;;;;;;3.88;0.75;;;5.90;99.90;;;;;;4964950;28;20100;-78
2022/01/31 12:50:52;;;;;;;3.15;0.98;;;5.80;99.90;;;;;;4963715;28;20035;-76
2022/01/31 12:53:42;;;;;;;4.50;1.00;;;5.90;99.90;;;;;;4970274;28;20085;-77
2022/01/31 12:56:21;;;;;;;9.55;3.10;;;6.00;99.90;;;;;;4983019;28;20042;-77
2022/01/31 12:59:02;;;;;;;10.35;1.95;;;5.90;99.90;;;;;;4979802;28;20110;-79
2022/01/31 13:01:45;;;;;;;4.13;1.45;;;5.80;99.90;;;;;;4963993;28;20062;-78
2022/01/31 13:04:13;;;;;;;6.07;1.17;;;5.80;99.90;;;;;;4987475;28;20129;-75
2022/01/31 13:06:47;;;;;;;7.55;1.67;;;5.70;99.90;;;;;;4992517;28;20034;-76
2022/01/31 13:09:24;;;;;;;3.33;0.90;;;5.70;99.90;;;;;;4988607;28;20077;-79
2022/01/31 13:11:54;;;;;;;10.05;2.25;;;5.70;99.90;;;;;;4984573;28;20058;-79
2022/01/31 13:14:24;;;;;;;2.97;1.13;;;5.70;99.90;;;;;;4983914;28;20043;-76
2022/01/31 13:17:11;;;;;;;5.75;1.58;;;5.70;99.90;;;;;;4983548;28;20364;-78
2022/01/31 13:19:40;;;;;;;5.70;0.85;;;5.70;99.90;;;;;;4983427;28;20038;-77
2022/01/31 13:22:13;;;;;;;5.03;0.98;;;5.60;99.90;;;;;;4982742;28;20030;-77
2022/01/31 13:24:46;;;;;;;2.95;0.80;;;5.60;99.90;;;;;;4982827;28;20031;-78
2022/01/31 13:27:20;;;;;;;5.05;1.20;;;5.40;99.90;;;;;;4982427;28;20054;-77
2022/01/31 13:29:48;;;;;;;6.50;1.30;;;5.40;99.90;;;;;;4982669;28;20045;-77
2022/01/31 13:32:19;;;;;;;6.93;1.27;;;5.40;99.90;;;;;;4981202;28;20043;-77
2022/01/31 13:34:51;;;;;;;3.08;0.80;;;5.40;99.90;;;;;;4964179;29;20046;-79